Time;durP1;ratioP1;P1;durP2;ratioP2;P2;SDS_P1;SDS_P2;PMS_P1;PMS_P2;Temp;Humidity;BMP_temperature;BMP_pressure;BME280_temperature;BME280_humidity;BME280_pressure;Samples;Min_cycle;Max_cycle;Signal;HPM_P1;HPM_P2
2022/12/17 13:06:36;;;;;;;13.15;5.70;;;;;;;;;;5002874;28;93205;-62
2022/12/17 13:09:15;;;;;;;11.95;5.35;;;;;;;;;;5002530;28;92573;-62
2022/12/17 13:11:43;;;;;;;13.23;5.50;;;;;;;;;;5000797;28;93323;-62
2022/12/17 13:14:17;;;;;;;16.33;5.10;;;;;;;;;;5002080;28;93966;-62
2022/12/17 13:16:44;;;;;;;15.23;5.70;;;;;;;;;;5002107;28;92657;-62
2022/12/17 13:19:29;;;;;;;12.25;5.30;;;;;;;;;;5000270;28;91691;-67
2022/12/17 13:21:55;;;;;;;13.23;5.80;;;;;;;;;;5001860;28;92471;-65
2022/12/17 13:24:26;;;;;;;15.63;5.78;;;;;;;;;;5001757;28;92723;-64
2022/12/17 13:26:52;;;;;;;20.60;5.97;;;;;;;;;;5003079;28;94983;-64
2022/12/17 13:29:25;;;;;;;14.15;5.97;;;;;;;;;;5001833;28;92774;-65
2022/12/17 13:31:52;;;;;;;12.82;5.85;;;;;;;;;;5002167;28;92381;-65
2022/12/17 13:34:18;;;;;;;16.50;5.93;;;;;;;;;;5001855;28;92397;-64
2022/12/17 13:36:44;;;;;;;12.90;5.72;;;;;;;;;;5001564;28;92657;-64
2022/12/17 13:39:23;;;;;;;13.90;5.53;;;;;;;;;;5001369;28;93778;-64
2022/12/17 13:41:52;;;;;;;12.30;5.68;;;;;;;;;;5000290;28;92303;-64
2022/12/17 13:44:33;;;;;;;16.42;6.32;;;;;;;;;;5001693;28;91875;-64
2022/12/17 13:46:59;;;;;;;31.23;7.03;;;;;;;;;;4999934;28;91966;-64
2022/12/17 13:49:27;;;;;;;16.92;5.75;;;;;;;;;;5004512;28;92795;-63
2022/12/17 13:51:53;;;;;;;;;;;;;;;;;;4999973;28;94756;-63
2022/12/17 13:54:21;;;;;;;17.13;5.82;;;;;;;;;;5001652;28;125213;-62
2022/12/17 13:56:49;;;;;;;16.02;5.53;;;;;;;;;;5000952;28;92326;-63
2022/12/17 13:59:20;;;;;;;18.17;6.05;;;;;;;;;;5001541;28;92506;-63
2022/12/17 14:01:53;;;;;;;20.55;5.93;;;;;;;;;;5001717;28;92410;-63
2022/12/17 14:04:19;;;;;;;16.67;6.50;;;;;;;;;;5000497;28;92817;-63
2022/12/17 14:06:46;;;;;;;18.02;6.85;;;;;;;;;;4998251;28;92093;-62
2022/12/17 14:09:16;;;;;;;17.02;5.97;;;;;;;;;;4999513;28;92784;-62
2022/12/17 14:14:29;;;;;;;17.30;6.32;;;;;;;;;;5001218;28;92889;-62
2022/12/17 14:16:56;;;;;;;23.65;6.55;;;;;;;;;;4997530;28;95063;-64
2022/12/17 14:19:23;;;;;;;24.40;6.80;;;;;;;;;;5001423;28;92504;-62
2022/12/17 14:21:50;;;;;;;17.10;6.30;;;;;;;;;;5000946;28;92287;-62
2022/12/17 14:24:18;;;;;;;20.35;6.15;;;;;;;;;;5000740;28;92606;-62
2022/12/17 14:27:11;;;;;;;16.98;5.90;;;;;;;;;;5000825;28;92653;-63
2022/12/17 14:29:45;;;;;;;16.52;5.90;;;;;;;;;;4991756;28;92975;-63
2022/12/17 14:32:29;;;;;;;15.20;6.05;;;;;;;;;;5000899;28;92556;-62
2022/12/17 14:34:55;;;;;;;17.80;6.03;;;;;;;;;;5002105;28;91717;-63
2022/12/17 14:37:26;;;;;;;18.48;5.40;;;;;;;;;;4998085;28;92809;-62
2022/12/17 14:39:55;;;;;;;18.48;6.28;;;;;;;;;;5000987;28;92708;-62
2022/12/17 14:42:28;;;;;;;15.68;6.03;;;;;;;;;;4999097;28;94703;-63
2022/12/17 14:44:59;;;;;;;16.17;5.97;;;;;;;;;;5000331;28;92413;-62
2022/12/17 14:47:27;;;;;;;13.27;5.75;;;;;;;;;;4998681;28;92447;-63
2022/12/17 14:50:03;;;;;;;14.73;6.13;;;;;;;;;;5000595;28;92512;-63
2022/12/17 14:52:32;;;;;;;15.35;6.15;;;;;;;;;;4998034;28;94358;-63
2022/12/17 14:54:59;;;;;;;16.02;5.72;;;;;;;;;;5003735;28;92063;-65
2022/12/17 14:57:26;;;;;;;18.45;5.97;;;;;;;;;;4997447;28;92398;-62
2022/12/17 14:59:52;;;;;;;13.98;5.38;;;;;;;;;;5000225;28;91419;-63
2022/12/17 15:02:24;;;;;;;11.35;5.40;;;;;;;;;;4999268;28;91989;-63
2022/12/17 15:04:52;;;;;;;14.00;5.85;;;;;;;;;;4999468;28;93821;-63
2022/12/17 15:07:19;;;;;;;;;;;;;;;;;;4998876;28;95009;-62
2022/12/17 15:09:45;;;;;;;11.40;5.68;;;;;;;;;;4974124;28;125272;-62
2022/12/17 15:12:12;;;;;;;13.05;5.60;;;;;;;;;;4998524;28;94142;-62
2022/12/17 15:14:38;;;;;;;14.15;6.65;;;;;;;;;;4998108;28;92289;-63
2022/12/17 15:17:04;;;;;;;12.80;5.95;;;;;;;;;;5001385;28;92623;-62
2022/12/17 15:19:31;;;;;;;15.13;5.82;;;;;;;;;;4997204;28;92129;-64
2022/12/17 15:21:58;;;;;;;13.82;6.30;;;;;;;;;;4996199;28;92791;-60
2022/12/17 15:24:24;;;;;;;14.90;6.40;;;;;;;;;;5001592;28;91802;-61
2022/12/17 15:26:50;;;;;;;14.82;6.13;;;;;;;;;;5002855;28;92577;-63
2022/12/17 15:29:17;;;;;;;13.13;6.47;;;;;;;;;;5002438;28;94294;-63
2022/12/17 15:31:43;;;;;;;15.05;7.05;;;;;;;;;;5000492;28;95294;-61
2022/12/17 15:34:10;;;;;;;13.43;6.38;;;;;;;;;;5000426;28;92366;-62
2022/12/17 15:36:38;;;;;;;15.52;7.00;;;;;;;;;;4999755;28;92602;-62
2022/12/17 15:39:05;;;;;;;13.32;6.43;;;;;;;;;;5004044;28;92679;-60
2022/12/17 15:44:17;;;;;;;14.70;7.53;;;;;;;;;;5001405;28;92650;-62
2022/12/17 15:46:43;;;;;;;15.15;7.15;;;;;;;;;;5001266;28;92455;-62
2022/12/17 15:49:10;;;;;;;16.60;7.60;;;;;;;;;;5002073;28;92276;-64
2022/12/17 15:51:37;;;;;;;16.70;7.20;;;;;;;;;;5000055;28;92807;-64
2022/12/17 15:54:03;;;;;;;17.25;7.88;;;;;;;;;;5002613;28;92692;-64
2022/12/17 15:56:29;;;;;;;17.60;8.10;;;;;;;;;;5000018;28;95064;-64
2022/12/17 15:58:57;;;;;;;15.52;7.43;;;;;;;;;;5001441;28;93246;-64
2022/12/17 16:01:23;;;;;;;15.93;7.63;;;;;;;;;;5004551;28;92449;-64
2022/12/17 16:03:50;;;;;;;16.35;7.88;;;;;;;;;;5001064;28;92591;-64
2022/12/17 16:06:16;;;;;;;18.48;8.43;;;;;;;;;;5002374;28;92286;-64
2022/12/17 16:08:43;;;;;;;17.15;8.82;;;;;;;;;;5003164;28;93800;-64
2022/12/17 16:11:10;;;;;;;16.77;8.52;;;;;;;;;;5001811;28;93686;-64
2022/12/17 16:13:37;;;;;;;17.50;8.63;;;;;;;;;;5003920;28;91731;-64
2022/12/17 16:16:03;;;;;;;15.90;8.45;;;;;;;;;;4999357;28;92365;-64
2022/12/17 16:18:30;;;;;;;16.13;8.32;;;;;;;;;;5003055;28;93583;-64
2022/12/17 16:21:01;;;;;;;15.68;7.75;;;;;;;;;;5001662;28;94444;-65
2022/12/17 16:23:27;;;;;;;17.42;8.30;;;;;;;;;;5006367;28;94656;-65
2022/12/17 16:25:54;;;;;;;16.95;7.85;;;;;;;;;;5003229;28;91981;-65
2022/12/17 16:28:21;;;;;;;14.10;7.20;;;;;;;;;;5002966;28;92480;-65
2022/12/17 16:31:17;;;;;;;16.48;7.72;;;;;;;;;;4996640;28;92648;-65
2022/12/17 16:33:44;;;;;;;15.68;7.80;;;;;;;;;;4995841;28;92424;-65
2022/12/17 16:36:11;;;;;;;15.70;7.25;;;;;;;;;;5002831;28;93607;-65
2022/12/17 16:38:42;;;;;;;15.57;7.60;;;;;;;;;;5003231;28;91666;-65
2022/12/17 16:41:08;;;;;;;15.80;7.38;;;;;;;;;;5002520;28;92446;-65
2022/12/17 16:43:34;;;;;;;15.38;7.25;;;;;;;;;;5004873;28;92635;-65
2022/12/17 16:46:01;;;;;;;14.85;7.35;;;;;;;;;;4999539;28;94532;-65
2022/12/17 16:48:35;;;;;;;13.50;6.68;;;;;;;;;;5003201;28;94659;-65
2022/12/17 16:51:13;;;;;;;16.75;6.88;;;;;;;;;;4996842;28;92857;-65
2022/12/17 16:53:40;;;;;;;12.85;6.63;;;;;;;;;;5002375;28;92202;-65
2022/12/17 16:56:06;;;;;;;14.75;7.20;;;;;;;;;;5002726;28;92440;-65
2022/12/17 16:58:33;;;;;;;13.57;6.80;;;;;;;;;;5002673;28;92702;-65
2022/12/17 17:01:00;;;;;;;14.50;6.43;;;;;;;;;;5002811;28;92413;-65
2022/12/17 17:03:26;;;;;;;13.38;6.57;;;;;;;;;;5003162;28;93238;-64
2022/12/17 17:05:58;;;;;;;12.68;6.03;;;;;;;;;;5005259;28;92844;-64
2022/12/17 17:08:24;;;;;;;15.18;6.78;;;;;;;;;;5002809;28;92326;-65
2022/12/17 17:10:51;;;;;;;15.35;6.78;;;;;;;;;;5000359;28;94512;-66
2022/12/17 17:13:17;;;;;;;14.38;6.68;;;;;;;;;;5001977;28;92504;-66
2022/12/17 17:15:43;;;;;;;16.23;6.60;;;;;;;;;;5001212;28;94393;-66
2022/12/17 17:18:10;;;;;;;14.00;6.38;;;;;;;;;;5002539;28;92701;-65
2022/12/17 17:20:36;;;;;;;14.55;6.85;;;;;;;;;;5002379;28;92298;-64
2022/12/17 17:23:02;;;;;;;16.98;6.75;;;;;;;;;;5002457;28;92938;-64
2022/12/17 17:25:29;;;;;;;13.57;7.35;;;;;;;;;;4997257;28;92767;-64
2022/12/17 17:28:15;;;;;;;14.75;7.18;;;;;;;;;;5006955;28;91679;-64
2022/12/17 17:30:42;;;;;;;19.40;8.10;;;;;;;;;;5002503;28;92689;-64
2022/12/17 17:33:08;;;;;;;17.88;8.32;;;;;;;;;;5003292;28;92253;-64
2022/12/17 17:35:34;;;;;;;19.58;8.65;;;;;;;;;;4987588;28;94459;-64
2022/12/17 17:38:01;;;;;;;19.48;8.77;;;;;;;;;;5003177;28;92060;-64
2022/12/17 17:40:27;;;;;;;20.88;8.90;;;;;;;;;;4992337;28;92064;-63
2022/12/17 17:42:54;;;;;;;18.00;9.05;;;;;;;;;;5002728;28;91986;-64
2022/12/17 17:45:20;;;;;;;17.30;8.40;;;;;;;;;;4999562;28;92739;-63
2022/12/17 17:47:46;;;;;;;19.38;9.50;;;;;;;;;;5002910;28;92506;-66
2022/12/17 17:50:13;;;;;;;22.20;9.88;;;;;;;;;;5005309;28;92424;-64
2022/12/17 17:52:39;;;;;;;23.80;9.23;;;;;;;;;;5003394;28;91499;-64
2022/12/17 17:55:06;;;;;;;21.67;9.20;;;;;;;;;;5002462;28;92242;-64
2022/12/17 17:57:32;;;;;;;21.90;9.15;;;;;;;;;;5002583;28;92627;-65
2022/12/17 17:59:59;;;;;;;20.48;9.35;;;;;;;;;;5000610;28;94939;-64
2022/12/17 18:02:25;;;;;;;22.27;9.50;;;;;;;;;;5001627;28;96706;-64
2022/12/17 18:04:52;;;;;;;22.63;9.50;;;;;;;;;;4982476;28;92603;-65
2022/12/17 18:07:18;;;;;;;22.27;10.52;;;;;;;;;;4980182;28;92072;-66
2022/12/17 18:09:53;;;;;;;21.00;10.00;;;;;;;;;;4981814;28;92330;-66
2022/12/17 18:15:06;;;;;;;21.48;9.80;;;;;;;;;;4982412;28;92783;-64
2022/12/17 18:17:42;;;;;;;21.00;9.35;;;;;;;;;;4983196;28;91826;-64
2022/12/17 18:20:10;;;;;;;22.88;9.23;;;;;;;;;;4980860;28;92462;-66
2022/12/17 18:22:36;;;;;;;19.67;8.90;;;;;;;;;;4979661;28;92413;-66
2022/12/17 18:25:03;;;;;;;23.20;9.90;;;;;;;;;;4974279;28;95128;-65
2022/12/17 18:27:30;;;;;;;22.83;9.63;;;;;;;;;;4978428;28;92175;-64
2022/12/17 18:29:56;;;;;;;21.98;9.73;;;;;;;;;;4981309;28;92407;-63
2022/12/17 18:32:23;;;;;;;19.63;9.13;;;;;;;;;;4981780;28;92723;-65
2022/12/17 18:34:49;;;;;;;20.90;10.40;;;;;;;;;;4984694;28;92077;-65
2022/12/17 18:37:15;;;;;;;20.33;9.40;;;;;;;;;;4980804;28;92544;-64
2022/12/17 18:39:42;;;;;;;17.70;8.18;;;;;;;;;;4981176;28;92743;-64
2022/12/17 18:44:53;;;;;;;20.02;8.23;;;;;;;;;;4981051;28;92617;-64
2022/12/17 18:47:20;;;;;;;18.20;7.88;;;;;;;;;;4962386;28;92984;-64
2022/12/17 18:49:47;;;;;;;19.70;8.65;;;;;;;;;;4960258;28;94906;-65
2022/12/17 18:52:13;;;;;;;16.10;7.97;;;;;;;;;;4978769;28;92569;-65
2022/12/17 18:54:43;;;;;;;18.30;9.15;;;;;;;;;;4984453;28;92268;-64
2022/12/17 18:57:09;;;;;;;15.25;7.47;;;;;;;;;;4965871;28;95223;-65
2022/12/17 18:59:36;;;;;;;16.65;7.55;;;;;;;;;;4972855;28;92361;-65
2022/12/17 19:02:02;;;;;;;16.52;7.88;;;;;;;;;;4987789;28;92417;-65
2022/12/17 19:04:31;;;;;;;16.35;7.45;;;;;;;;;;4999048;28;92593;-65
2022/12/17 19:06:58;;;;;;;15.43;7.15;;;;;;;;;;5007974;28;91545;-65
2022/12/17 19:09:26;;;;;;;18.92;8.15;;;;;;;;;;5007822;28;92394;-65
2022/12/17 19:11:53;;;;;;;15.57;7.07;;;;;;;;;;5007464;28;92750;-65
2022/12/17 19:14:23;;;;;;;15.40;7.40;;;;;;;;;;5005944;28;95025;-65
2022/12/17 19:16:51;;;;;;;15.65;7.28;;;;;;;;;;5000490;28;94126;-65
2022/12/17 19:19:18;;;;;;;16.58;7.18;;;;;;;;;;5006846;28;92398;-64
2022/12/17 19:21:44;;;;;;;17.90;7.15;;;;;;;;;;5007331;28;93414;-64
2022/12/17 19:24:12;;;;;;;13.98;6.80;;;;;;;;;;5007062;28;93113;-64
2022/12/17 19:26:38;;;;;;;;;;;;;;;;;;5006726;28;92330;-64
2022/12/17 19:29:07;;;;;;;17.27;6.65;;;;;;;;;;5008276;28;122181;-64
2022/12/17 19:31:34;;;;;;;15.60;6.90;;;;;;;;;;5004017;28;91975;-64
2022/12/17 19:34:05;;;;;;;15.93;6.50;;;;;;;;;;5004252;28;91995;-64
2022/12/17 19:36:33;;;;;;;15.48;6.90;;;;;;;;;;5007502;28;92392;-64
2022/12/17 19:38:59;;;;;;;;;;;;;;;;;;5009166;28;94988;-64
2022/12/17 19:41:26;;;;;;;14.95;7.32;;;;;;;;;;5008582;28;104673;-64
2022/12/17 19:43:53;;;;;;;;;;;;;;;;;;5007502;28;92227;-64
2022/12/17 19:46:19;;;;;;;17.38;7.15;;;;;;;;;;4999031;28;92505;-65
2022/12/17 19:48:46;;;;;;;14.48;6.53;;;;;;;;;;5004837;28;92309;-64
2022/12/17 19:51:15;;;;;;;14.18;6.45;;;;;;;;;;5006081;28;92557;-64
2022/12/17 19:53:42;;;;;;;15.85;6.68;;;;;;;;;;5006908;28;92339;-64
2022/12/17 19:56:10;;;;;;;13.93;7.05;;;;;;;;;;5007046;28;92316;-66
2022/12/17 19:58:38;;;;;;;16.20;6.72;;;;;;;;;;5006443;28;92599;-64
2022/12/17 20:01:07;;;;;;;17.17;6.78;;;;;;;;;;5009420;28;92161;-65
2022/12/17 20:03:34;;;;;;;16.73;6.80;;;;;;;;;;5004383;28;95424;-65
2022/12/17 20:06:01;;;;;;;14.55;6.40;;;;;;;;;;5007205;28;92432;-64
2022/12/17 20:08:27;;;;;;;15.85;7.18;;;;;;;;;;5005422;28;93424;-64
2022/12/17 20:10:54;;;;;;;15.15;6.88;;;;;;;;;;5002967;28;92531;-64
2022/12/17 20:13:20;;;;;;;15.32;7.28;;;;;;;;;;5003709;28;92230;-64
2022/12/17 20:15:47;;;;;;;15.60;6.80;;;;;;;;;;5002840;28;92443;-64
2022/12/17 20:18:14;;;;;;;16.48;7.90;;;;;;;;;;5003362;28;92938;-65
2022/12/17 20:20:40;;;;;;;16.67;7.07;;;;;;;;;;5003708;28;91761;-64
2022/12/17 20:23:06;;;;;;;16.30;6.95;;;;;;;;;;5006345;28;92414;-64
2022/12/17 20:25:33;;;;;;;16.77;7.15;;;;;;;;;;5003220;28;92146;-64
2022/12/17 20:27:59;;;;;;;16.58;7.45;;;;;;;;;;4997630;28;95069;-65
2022/12/17 20:30:25;;;;;;;15.23;6.68;;;;;;;;;;5002811;28;93143;-64
2022/12/17 20:32:52;;;;;;;15.65;7.10;;;;;;;;;;5003789;28;92075;-65
2022/12/17 20:35:20;;;;;;;15.20;6.97;;;;;;;;;;5003157;28;92404;-64
2022/12/17 20:37:46;;;;;;;15.13;7.22;;;;;;;;;;5002975;28;92858;-65
2022/12/17 20:40:12;;;;;;;16.70;6.97;;;;;;;;;;5003059;28;92797;-63
2022/12/17 20:42:39;;;;;;;16.02;7.47;;;;;;;;;;5003258;28;92759;-67
2022/12/17 20:45:06;;;;;;;16.20;7.18;;;;;;;;;;5005818;28;91963;-64
2022/12/17 20:47:32;;;;;;;15.98;7.85;;;;;;;;;;5003506;28;92661;-64
2022/12/17 20:49:58;;;;;;;15.75;6.72;;;;;;;;;;5001680;28;92591;-64
2022/12/17 20:52:25;;;;;;;14.20;6.43;;;;;;;;;;4999769;28;94506;-64
2022/12/17 20:54:51;;;;;;;13.88;6.40;;;;;;;;;;5002609;28;94991;-64
2022/12/17 20:57:17;;;;;;;13.38;6.32;;;;;;;;;;4999759;28;93554;-64
2022/12/17 20:59:44;;;;;;;13.95;6.43;;;;;;;;;;5002896;28;92066;-64
2022/12/17 21:02:10;;;;;;;14.98;6.53;;;;;;;;;;5002861;28;92413;-65
2022/12/17 21:04:36;;;;;;;14.85;7.20;;;;;;;;;;5005398;28;92543;-64
2022/12/17 21:07:03;;;;;;;14.40;6.32;;;;;;;;;;5002906;28;93675;-64
2022/12/17 21:09:29;;;;;;;15.00;6.72;;;;;;;;;;5003182;28;91905;-64
2022/12/17 21:11:56;;;;;;;15.32;7.00;;;;;;;;;;4993936;28;92051;-65
2022/12/17 21:14:22;;;;;;;15.88;7.68;;;;;;;;;;5002627;28;92340;-65
2022/12/17 21:16:48;;;;;;;13.68;6.55;;;;;;;;;;4999579;28;96421;-64
2022/12/17 21:19:17;;;;;;;14.63;6.65;;;;;;;;;;5001168;28;92442;-64
2022/12/17 21:21:44;;;;;;;13.15;6.80;;;;;;;;;;5000794;28;93301;-67
2022/12/17 21:24:10;;;;;;;16.85;8.00;;;;;;;;;;5001936;28;92824;-66
2022/12/17 21:26:38;;;;;;;14.90;6.72;;;;;;;;;;5006119;28;92355;-66
2022/12/17 21:29:06;;;;;;;20.58;7.43;;;;;;;;;;5001816;28;92737;-65
2022/12/17 21:31:37;;;;;;;15.90;6.68;;;;;;;;;;5001601;28;93420;-66
2022/12/17 21:34:04;;;;;;;14.52;6.30;;;;;;;;;;5002549;28;92314;-66
2022/12/17 21:36:31;;;;;;;15.20;6.05;;;;;;;;;;5001534;28;92546;-67
2022/12/17 21:38:58;;;;;;;13.80;6.00;;;;;;;;;;4997981;28;92088;-66
2022/12/17 21:41:26;;;;;;;13.80;5.68;;;;;;;;;;5000259;28;94455;-66
2022/12/17 21:43:54;;;;;;;14.07;6.50;;;;;;;;;;5001539;28;92295;-66
2022/12/17 21:46:20;;;;;;;;;;;;;;;;;;5002191;28;92260;-66
2022/12/17 21:48:47;;;;;;;13.93;6.30;;;;;;;;;;5005895;28;114014;-66
2022/12/17 21:51:14;;;;;;;13.18;5.85;;;;;;;;;;5000709;28;92198;-66
2022/12/17 21:53:42;;;;;;;12.93;6.28;;;;;;;;;;4999621;28;92220;-65
2022/12/17 21:56:10;;;;;;;12.93;5.80;;;;;;;;;;5000265;28;92475;-67
2022/12/17 21:58:36;;;;;;;12.40;5.95;;;;;;;;;;5001842;28;91658;-67
2022/12/17 22:01:08;;;;;;;13.82;6.30;;;;;;;;;;5001716;28;92352;-67
2022/12/17 22:03:43;;;;;;;12.88;5.82;;;;;;;;;;5001267;28;92573;-65
2022/12/17 22:06:11;;;;;;;11.60;5.78;;;;;;;;;;5000078;28;94466;-65
2022/12/17 22:08:37;;;;;;;;;;;;;;;;;;4991041;28;95012;-63
2022/12/17 22:11:11;;;;;;;14.13;6.35;;;;;;;;;;5000846;28;123437;-63
2022/12/17 22:14:22;;;;;;;12.35;5.88;;;;;;;;;;5002033;28;92386;-64
2022/12/17 22:16:35;;;;;;;14.18;6.07;;;;;;;;;;4997333;28;92869;-63
2022/12/17 22:19:02;;;;;;;12.38;5.40;;;;;;;;;;5001691;28;92422;-63
2022/12/17 22:21:31;;;;;;;12.55;5.63;;;;;;;;;;5000380;28;92716;-63
2022/12/17 22:23:58;;;;;;;12.35;5.38;;;;;;;;;;5001841;28;92165;-65
2022/12/17 22:26:24;;;;;;;11.32;5.25;;;;;;;;;;5000949;28;92139;-66
2022/12/17 22:28:50;;;;;;;13.45;5.53;;;;;;;;;;5001593;28;92428;-65
2022/12/17 22:34:04;;;;;;;12.00;5.55;;;;;;;;;;5003852;28;92305;-62
2022/12/17 22:36:51;;;;;;;13.05;5.38;;;;;;;;;;4998558;28;94303;-63
2022/12/17 22:39:37;;;;;;;13.40;5.63;;;;;;;;;;5001754;28;92364;-63
2022/12/17 22:45:29;;;;;;;11.70;5.53;;;;;;;;;;4994500;28;93369;-64
2022/12/17 22:47:55;;;;;;;11.50;5.13;;;;;;;;;;5002053;28;92054;-64
2022/12/17 22:50:21;;;;;;;12.25;5.90;;;;;;;;;;5001810;28;93416;-63
2022/12/17 22:53:02;;;;;;;13.23;5.70;;;;;;;;;;5001760;28;92523;-64
2022/12/17 22:55:29;;;;;;;11.90;5.45;;;;;;;;;;5001571;28;92033;-62
2022/12/17 22:57:56;;;;;;;12.27;5.47;;;;;;;;;;5003100;28;94602;-62
2022/12/17 23:00:25;;;;;;;10.93;5.18;;;;;;;;;;5002299;28;92700;-62
2022/12/17 23:02:53;;;;;;;11.30;5.55;;;;;;;;;;4995525;28;92938;-63
2022/12/17 23:05:20;;;;;;;11.23;5.40;;;;;;;;;;4983948;28;93890;-63
2022/12/17 23:07:47;;;;;;;11.70;5.72;;;;;;;;;;4996036;28;92345;-63
2022/12/17 23:10:13;;;;;;;11.95;5.28;;;;;;;;;;4999479;28;93332;-62
2022/12/17 23:12:55;;;;;;;11.85;6.15;;;;;;;;;;5000152;28;92698;-63
2022/12/17 23:15:21;;;;;;;12.05;5.35;;;;;;;;;;5000030;28;91761;-62
2022/12/17 23:17:48;;;;;;;11.60;5.30;;;;;;;;;;5002317;28;92051;-62
2022/12/17 23:20:14;;;;;;;11.77;5.38;;;;;;;;;;4987901;28;93689;-63
2022/12/17 23:22:41;;;;;;;11.77;4.90;;;;;;;;;;4982493;28;96438;-63
2022/12/17 23:25:07;;;;;;;13.23;5.95;;;;;;;;;;4982910;28;93681;-62
2022/12/17 23:27:34;;;;;;;11.63;5.90;;;;;;;;;;4999043;28;93010;-62
2022/12/17 23:30:00;;;;;;;11.35;5.20;;;;;;;;;;4994723;28;92639;-62
2022/12/17 23:32:27;;;;;;;12.50;5.68;;;;;;;;;;4999271;28;92625;-63
2022/12/17 23:34:53;;;;;;;11.45;5.45;;;;;;;;;;4998093;28;92291;-62
2022/12/17 23:37:19;;;;;;;12.07;5.57;;;;;;;;;;4999011;28;92185;-62
2022/12/17 23:39:46;;;;;;;11.90;5.85;;;;;;;;;;5002550;28;92416;-63
2022/12/17 23:42:12;;;;;;;12.35;5.53;;;;;;;;;;4999732;28;92008;-62
2022/12/17 23:44:38;;;;;;;11.73;5.78;;;;;;;;;;4998893;28;92897;-65
2022/12/17 23:47:05;;;;;;;11.60;5.57;;;;;;;;;;4999163;28;94823;-63
2022/12/17 23:49:31;;;;;;;13.48;5.90;;;;;;;;;;4997521;28;94655;-64
2022/12/17 23:51:58;;;;;;;12.60;5.78;;;;;;;;;;5000578;28;92872;-63
2022/12/17 23:54:24;;;;;;;12.63;5.88;;;;;;;;;;4999460;28;92645;-63
2022/12/17 23:56:50;;;;;;;13.55;6.63;;;;;;;;;;5002243;28;92303;-64
2022/12/17 23:59:17;;;;;;;13.98;6.03;;;;;;;;;;5001158;28;92788;-62
